Monday, August 20, 2018, 7:51 PM EDT
Back to Local

KTTN, Trenton Mercer County Airport

Location: Trenton, NJ, United States Lat: 40.283
Local Time: 7:51 PM EDT (23:51 GMT) Lon: -74.817
Time Zone: US/Eastern Elev: 213 ft

Show me the last for .
Show Coded

Time T Td Feel RH Dir Speed Gust Alt SLP Vis Weather Sky Remarks
2018-08-20 18:53 74 65 77 73 110° 7 - 30.11 30.09 10 OVC042 None
2018-08-20 17:53 75 64 78 68 120° 7 - 30.11 30.09 10 OVC041 None
2018-08-20 16:53 76 64 79 66 110° 5 - 30.10 30.08 10 OVC046 None
2018-08-20 15:53 78 65 81 64 60° 9 - 30.11 30.09 10 FEW026 BKN046 None
2018-08-20 14:53 78 66 81 66 90° 9 - 30.12 30.10 10 FEW031 SCT048 BKN070 None
2018-08-20 13:53 77 63 79 61 Variable 7 - 30.13 30.11 10 FEW029 BKN080 6-hr Min Temp (2pm): 68.0°F
6-hr Max Temp (2pm): 77.0°F
2018-08-20 12:53 77 64 79 64 Variable 7 - 30.13 30.11 10 BKN080 None
2018-08-20 11:53 75 63 78 66 110° 9 - 30.13 30.11 10 SCT027 BKN035 OVC075 None
2018-08-20 10:53 73 63 77 70 60° 8 - 30.13 30.11 10 OVC023 None
2018-08-20 10:40 73 63 77 70 80° 8 - 30.13 - 10 BKN021 None
2018-08-20 09:53 72 63 76 73 70° 10 - 30.13 30.11 10 OVC075 None
2018-08-20 08:53 71 63 76 75 40° 7 - 30.12 30.09 10 BKN080 None
2018-08-20 07:53 68 62 - 81 30° 6 - 30.12 30.10 10 OVC075 24-hr Precip Total (8am): 0.35"
6-hr Min Temp (8am): 66.9°F
6-hr Max Temp (8am): 69.1°F
2018-08-20 06:53 67 62 - 84 10° 5 - 30.11 30.09 10 FEW026 BKN070 OVC095 None
2018-08-20 05:53 67 63 - 87 - Calm - 30.11 30.09 10 SCT028 BKN065 OVC080 None
2018-08-20 04:53 68 63 - 83 10° 5 - 30.10 30.08 10 FEW049 OVC055 None
2018-08-20 03:53 68 63 - 83 10° 5 - 30.08 30.06 10 SCT050 OVC065 None
2018-08-20 02:53 69 63 - 80 50° 5 - 30.07 30.05 10 SCT055 OVC070 None
2018-08-20 01:53 69 65 - 86 70° 6 - 30.08 30.06 10 SCT044 OVC050 6-hr Min Temp (2am): 69.1°F
6-hr Max Temp (2am): 70.0°F
2018-08-20 00:53 69 65 - 86 60° 3 - 30.08 30.06 10 OVC036 24-hr Min Temp (1am): 68.0°F
24-hr Max Temp (1am): 72.0°F
2018-08-19 23:53 69 65 - 86 - Calm - 30.08 30.06 10 OVC038 None
2018-08-19 22:53 69 65 - 86 90° 3 - 30.07 30.05 10 FEW022 OVC043 None
2018-08-19 21:53 69 65 - 86 40° 5 - 30.07 30.05 10 OVC041 None
2018-08-19 20:53 69 65 - 86 60° 3 - 30.05 30.03 10 FEW020 OVC040 None
2018-08-19 19:53 70 65 - 84 50° 5 - 30.04 30.02 10 OVC034 6-hr Min Temp (8pm): 69.1°F
6-hr Max Temp (8pm): 72.0°F

Support USWX by starting your Amazon purchase here.